Time;durP1;ratioP1;P1;durP2;ratioP2;P2;SDS_P1;SDS_P2;PMS_P1;PMS_P2;Temp;Humidity;BMP_temperature;BMP_pressure;BME280_temperature;BME280_humidity;BME280_pressure;Samples;Min_cycle;Max_cycle;Signal;HPM_P1;HPM_P2
2022/12/09 00:01:34;;;;;;;;;;;15.50;72.10;;;;;;5033548;28;19957;-92
2022/12/09 00:04:00;;;;;;;;;;;15.50;72.30;;;;;;5033143;28;19921;-92
2022/12/09 00:06:27;;;;;;;;;;;15.40;72.30;;;;;;5033368;28;19909;-92
2022/12/09 00:08:53;;;;;;;;;;;15.40;72.50;;;;;;5017152;28;20069;-92
2022/12/09 00:11:21;;;;;;;;;;;15.40;72.60;;;;;;5016529;28;19909;-91
2022/12/09 00:13:47;;;;;;;;;;;15.40;72.70;;;;;;5016656;28;20293;-91
2022/12/09 00:16:14;;;;;;;;;;;15.40;72.80;;;;;;5017427;28;20113;-91
2022/12/09 00:18:40;;;;;;;;;;;15.40;73.50;;;;;;5016155;28;19909;-92
2022/12/09 00:21:18;;;;;;;;;;;15.30;72.90;;;;;;5016794;28;19955;-92
2022/12/09 00:23:44;;;;;;;;;;;15.30;73.00;;;;;;5016732;28;20342;-92
2022/12/09 00:26:10;;;;;;;;;;;15.30;73.10;;;;;;5033533;28;19940;-91
2022/12/09 00:28:36;;;;;;;;;;;15.30;73.20;;;;;;5017023;28;20267;-92
2022/12/09 00:31:03;;;;;;;;;;;15.30;73.10;;;;;;5018036;28;19983;-92
2022/12/09 00:33:32;;;;;;;;;;;15.30;73.00;;;;;;5017013;28;20275;-92
2022/12/09 00:36:09;;;;;;;;;;;15.30;73.00;;;;;;5016785;28;20230;-92
2022/12/09 00:38:35;;;;;;;;;;;15.30;73.00;;;;;;5018860;28;20279;-91
2022/12/09 00:41:01;;;;;;;;;;;15.30;73.50;;;;;;5018574;28;20157;-92
2022/12/09 00:43:26;;;;;;;;;;;15.30;72.80;;;;;;5017605;28;19919;-92
2022/12/09 00:45:52;;;;;;;;;;;15.30;72.80;;;;;;5017860;28;19921;-91
2022/12/09 00:48:18;;;;;;;;;;;15.30;72.70;;;;;;5033897;28;20057;-92
2022/12/09 00:50:44;;;;;;;;;;;15.30;72.80;;;;;;5034153;28;19941;-92
2022/12/09 00:53:10;;;;;;;;;;;15.30;72.70;;;;;;5017084;28;19913;-92
2022/12/09 00:55:35;;;;;;;;;;;15.30;72.60;;;;;;5034289;28;19910;-92
2022/12/09 00:58:01;;;;;;;;;;;15.30;72.60;;;;;;5034812;28;20012;-92
2022/12/09 01:00:27;;;;;;;;;;;15.30;72.60;;;;;;5018093;28;19920;-92
2022/12/09 01:02:52;;;;;;;;;;;15.30;72.70;;;;;;5033181;28;19910;-92
2022/12/09 01:05:18;;;;;;;;;;;15.30;72.50;;;;;;5032745;28;19908;-92
2022/12/09 01:07:44;;;;;;;;;;;15.30;72.50;;;;;;5033899;28;19920;-92
2022/12/09 01:10:10;;;;;;;;;;;15.30;72.30;;;;;;5034703;28;20003;-92
2022/12/09 01:12:35;;;;;;;;;;;15.30;72.40;;;;;;5018642;28;19913;-92
2022/12/09 01:15:01;;;;;;;;;;;15.30;72.90;;;;;;5035583;28;19909;-92
2022/12/09 01:17:27;;;;;;;;;;;15.30;72.40;;;;;;5018181;28;19909;-92
2022/12/09 01:19:53;;;;;;;;;;;15.30;72.20;;;;;;5033857;28;19920;-92
2022/12/09 01:22:18;;;;;;;;;;;15.30;72.30;;;;;;5032444;28;19916;-92
2022/12/09 01:24:44;;;;;;;;;;;15.30;72.30;;;;;;5034194;28;19909;-91
2022/12/09 01:27:10;;;;;;;;;;;15.30;72.40;;;;;;5033594;28;19909;-92
2022/12/09 01:29:35;;;;;;;;;;;15.30;72.30;;;;;;5032179;28;19915;-92
2022/12/09 01:32:01;;;;;;;;;;;15.30;72.40;;;;;;5032220;28;19987;-91
2022/12/09 01:34:26;;;;;;;;;;;15.30;72.30;;;;;;5030904;28;20279;-92
2022/12/09 01:36:52;;;;;;;;;;;15.30;72.30;;;;;;5031640;28;19913;-92
2022/12/09 01:39:18;;;;;;;;;;;15.30;72.40;;;;;;5030679;28;20556;-92
2022/12/09 01:41:44;;;;;;;;;;;15.30;73.00;;;;;;5030960;28;19909;-92
2022/12/09 01:44:18;;;;;;;;;;;15.30;72.40;;;;;;5030997;28;20057;-91
2022/12/09 01:46:44;;;;;;;;;;;15.30;72.40;;;;;;5015678;28;19909;-91
2022/12/09 01:49:11;;;;;;;;;;;15.30;72.40;;;;;;5016083;28;19909;-91
2022/12/09 01:51:38;;;;;;;;;;;15.30;72.40;;;;;;5015592;28;19975;-91
2022/12/09 01:54:03;;;;;;;;;;;15.30;72.30;;;;;;5016014;28;19909;-91
2022/12/09 01:56:31;;;;;;;;;;;15.30;72.30;;;;;;5015889;28;19920;-91
2022/12/09 01:59:01;;;;;;;;;;;15.30;72.30;;;;;;5015958;28;19909;-92
2022/12/09 02:01:26;;;;;;;;;;;15.30;72.30;;;;;;5015814;28;19909;-92
2022/12/09 02:03:52;;;;;;;;;;;15.20;72.30;;;;;;5032547;28;20043;-91
2022/12/09 02:06:18;;;;;;;;;;;15.20;72.30;;;;;;5015670;28;20008;-92
2022/12/09 02:08:44;;;;;;;;;;;15.20;72.40;;;;;;5032815;28;19940;-91
2022/12/09 02:11:14;;;;;;;;;;;15.20;72.30;;;;;;5016478;28;19913;-91
2022/12/09 02:13:44;;;;;;;;;;;15.20;72.20;;;;;;5017833;28;20268;-91
2022/12/09 02:16:12;;;;;;;;;;;15.20;72.30;;;;;;5017087;28;19909;-91
2022/12/09 02:18:38;;;;;;;;;;;15.20;72.20;;;;;;5016901;28;19917;-91
2022/12/09 02:21:08;;;;;;;;;;;15.20;72.30;;;;;;5017121;28;19925;-91
2022/12/09 02:23:39;;;;;;;;;;;15.20;72.30;;;;;;5017213;28;19909;-92
2022/12/09 02:26:05;;;;;;;;;;;15.20;72.30;;;;;;5017339;28;20012;-92
2022/12/09 02:28:46;;;;;;;;;;;15.20;72.30;;;;;;5017107;28;19996;-91
2022/12/09 02:31:30;;;;;;;;;;;15.20;72.40;;;;;;5016303;28;19913;-92
2022/12/09 02:34:01;;;;;;;;;;;15.20;72.40;;;;;;5019058;28;19909;-92
2022/12/09 02:36:29;;;;;;;;;;;15.20;72.30;;;;;;5020459;28;19920;-92
2022/12/09 02:38:56;;;;;;;;;;;15.20;72.40;;;;;;5019628;28;19910;-92
2022/12/09 02:41:24;;;;;;;;;;;15.20;72.20;;;;;;5020877;28;19964;-92
2022/12/09 02:43:53;;;;;;;;;;;15.20;72.20;;;;;;5020780;28;19913;-92
2022/12/09 02:46:19;;;;;;;;;;;15.20;72.20;;;;;;5021198;28;19920;-92
2022/12/09 02:48:48;;;;;;;;;;;15.20;72.10;;;;;;5020540;28;19975;-92
2022/12/09 02:51:16;;;;;;;;;;;15.20;72.10;;;;;;5019855;28;19909;-92
2022/12/09 02:53:43;;;;;;;;;;;15.20;72.00;;;;;;5019751;28;19910;-92
2022/12/09 02:56:10;;;;;;;;;;;15.20;71.90;;;;;;5019613;28;19919;-92
2022/12/09 02:58:35;;;;;;;;;;;15.20;71.70;;;;;;5019550;28;19919;-91
2022/12/09 03:01:01;;;;;;;;;;;15.20;71.70;;;;;;5014242;28;19909;-92
2022/12/09 03:03:28;;;;;;;;;;;15.20;71.70;;;;;;5030010;28;19909;-92
2022/12/09 03:06:03;;;;;;;;;;;15.20;71.60;;;;;;5014500;28;19909;-92
2022/12/09 03:08:38;;;;;;;;;;;15.20;71.60;;;;;;5011768;28;20154;-92
2022/12/09 03:11:15;;;;;;;;;;;15.20;71.50;;;;;;5013260;28;20019;-92
2022/12/09 03:13:50;;;;;;;;;;;15.20;71.50;;;;;;5012481;28;20058;-92
2022/12/09 03:16:36;;;;;;;;;;;15.20;71.40;;;;;;5011684;28;20074;-92
2022/12/09 03:19:04;;;;;;;;;;;15.20;71.40;;;;;;5015761;28;19913;-91
2022/12/09 03:21:31;;;;;;;;;;;15.20;71.40;;;;;;5016494;28;19932;-91
2022/12/09 03:23:57;;;;;;;;;;;15.20;71.50;;;;;;5018124;28;20310;-92
2022/12/09 03:26:24;;;;;;;;;;;15.10;71.50;;;;;;5017725;28;20085;-92
2022/12/09 03:28:51;;;;;;;;;;;15.10;71.50;;;;;;5017359;28;19940;-92
2022/12/09 03:31:19;;;;;;;;;;;15.10;71.50;;;;;;5017891;28;19913;-91
2022/12/09 03:33:50;;;;;;;;;;;15.20;71.50;;;;;;5019599;28;19951;-91
2022/12/09 03:36:18;;;;;;;;;;;15.10;71.50;;;;;;5018278;28;19916;-92
2022/12/09 03:38:45;;;;;;;;;;;15.10;71.50;;;;;;5018067;28;19944;-92
2022/12/09 03:41:28;;;;;;;;;;;15.10;71.50;;;;;;5018981;28;20036;-91
2022/12/09 03:43:58;;;;;;;;;;;15.10;71.50;;;;;;5017899;28;19913;-92
2022/12/09 03:46:24;;;;;;;;;;;15.10;71.50;;;;;;5017616;28;20356;-91
2022/12/09 03:48:50;;;;;;;;;;;15.10;71.60;;;;;;5019069;28;19979;-91
2022/12/09 03:51:30;;;;;;;;;;;15.10;71.60;;;;;;5033938;28;20007;-92
2022/12/09 03:54:00;;;;;;;;;;;15.10;71.50;;;;;;5018090;28;19909;-92
2022/12/09 03:56:29;;;;;;;;;;;15.10;71.50;;;;;;5016483;28;19909;-91
2022/12/09 03:58:56;;;;;;;;;;;15.10;71.50;;;;;;5015859;28;19944;-92
2022/12/09 04:01:23;;;;;;;;;;;15.10;71.50;;;;;;5015657;28;19909;-92
2022/12/09 04:03:49;;;;;;;;;;;15.10;71.40;;;;;;5014561;28;19920;-92
2022/12/09 04:06:14;;;;;;;;;;;15.10;71.50;;;;;;5017934;28;19917;-91
2022/12/09 04:08:40;;;;;;;;;;;15.10;71.50;;;;;;5018071;28;19909;-91
2022/12/09 04:11:06;;;;;;;;;;;15.10;71.50;;;;;;5035199;28;19984;-92
2022/12/09 04:13:32;;;;;;;;;;;15.00;71.50;;;;;;5018325;28;19949;-92
2022/12/09 04:15:58;;;;;;;;;;;15.10;71.60;;;;;;5035268;28;19909;-91
2022/12/09 04:18:23;;;;;;;;;;;15.00;71.60;;;;;;5036125;28;20201;-92
2022/12/09 04:20:49;;;;;;;;;;;15.00;71.70;;;;;;5035727;28;19932;-91
2022/12/09 04:23:14;;;;;;;;;;;15.00;71.70;;;;;;5035665;28;19909;-92
2022/12/09 04:25:40;;;;;;;;;;;15.00;71.70;;;;;;5034456;28;19909;-91
2022/12/09 04:28:06;;;;;;;;;;;15.00;71.70;;;;;;5034131;28;20163;-91
2022/12/09 04:30:31;;;;;;;;;;;15.00;71.70;;;;;;5032948;28;20254;-92
2022/12/09 04:33:00;;;;;;;;;;;15.00;71.70;;;;;;5033809;28;19920;-92
2022/12/09 04:35:26;;;;;;;;;;;15.00;71.60;;;;;;5018085;28;20050;-91
2022/12/09 04:37:52;;;;;;;;;;;15.00;71.60;;;;;;5034445;28;19921;-91
2022/12/09 04:40:18;;;;;;;;;;;15.00;71.60;;;;;;5034813;28;19935;-91
2022/12/09 04:42:44;;;;;;;;;;;15.00;71.60;;;;;;5034914;28;19920;-92
2022/12/09 04:45:11;;;;;;;;;;;15.00;71.60;;;;;;5017861;28;19909;-92
2022/12/09 04:47:36;;;;;;;;;;;15.00;71.60;;;;;;5017671;28;20185;-92
2022/12/09 04:50:03;;;;;;;;;;;15.00;71.50;;;;;;5034760;28;19960;-91
2022/12/09 04:52:28;;;;;;;;;;;14.90;71.50;;;;;;5017376;28;19974;-92
2022/12/09 04:54:54;;;;;;;;;;;14.90;71.40;;;;;;5034962;28;20042;-92
2022/12/09 04:57:19;;;;;;;;;;;14.90;71.40;;;;;;5033454;28;20023;-92
2022/12/09 04:59:45;;;;;;;;;;;14.90;71.40;;;;;;5033603;28;19920;-91
2022/12/09 05:02:10;;;;;;;;;;;14.90;71.30;;;;;;5032811;28;19909;-91
2022/12/09 05:04:36;;;;;;;;;;;14.90;71.30;;;;;;5032036;28;20086;-92
2022/12/09 05:07:02;;;;;;;;;;;14.90;71.20;;;;;;5031733;28;19940;-92
2022/12/09 05:09:27;;;;;;;;;;;14.90;71.10;;;;;;5032126;28;19917;-91
2022/12/09 05:11:55;;;;;;;;;;;14.90;71.20;;;;;;5032004;28;19963;-92
2022/12/09 05:14:20;;;;;;;;;;;14.90;71.30;;;;;;5017410;28;19913;-91
2022/12/09 05:16:47;;;;;;;;;;;14.90;71.30;;;;;;5033395;28;19909;-92
2022/12/09 05:19:13;;;;;;;;;;;14.90;71.30;;;;;;5033986;28;19915;-92
2022/12/09 05:21:38;;;;;;;;;;;14.80;71.40;;;;;;5033826;28;19909;-92
2022/12/09 05:24:04;;;;;;;;;;;14.80;72.10;;;;;;5032975;28;19909;-92
2022/12/09 05:26:30;;;;;;;;;;;14.80;71.50;;;;;;5014886;28;20392;-91
2022/12/09 05:28:55;;;;;;;;;;;14.80;71.70;;;;;;5015448;28;20034;-91
2022/12/09 05:31:22;;;;;;;;;;;14.70;71.70;;;;;;5032353;28;19951;-92
2022/12/09 05:33:48;;;;;;;;;;;14.70;72.00;;;;;;5014029;28;19916;-92
2022/12/09 05:36:15;;;;;;;;;;;14.60;72.10;;;;;;5015398;28;20211;-92
2022/12/09 05:38:40;;;;;;;;;;;14.60;72.40;;;;;;5014145;28;19916;-91
2022/12/09 05:41:06;;;;;;;;;;;14.90;71.60;;;;;;5030083;28;20182;-92
2022/12/09 05:43:32;;;;;;;;;;;16.20;64.80;;;;;;5015954;28;19992;-91
2022/12/09 05:45:59;;;;;;;;;;;17.00;60.40;;;;;;5015572;28;19919;-92
2022/12/09 05:48:25;;;;;;;;;;;17.30;59.20;;;;;;5015793;28;19909;-92
2022/12/09 05:51:03;;;;;;;;;;;17.60;58.20;;;;;;5031923;28;19920;-92
2022/12/09 05:53:28;;;;;;;;;;;17.80;57.50;;;;;;5013937;28;19924;-91
2022/12/09 05:55:54;;;;;;;;;;;18.20;56.70;;;;;;5030863;28;19909;-92
2022/12/09 05:58:19;;;;;;;;;;;18.40;56.00;;;;;;5030784;28;19916;-92
2022/12/09 06:00:45;;;;;;;;;;;18.60;55.60;;;;;;5016199;28;20239;-92
2022/12/09 06:03:11;;;;;;;;;;;18.60;55.20;;;;;;5015893;28;19913;-92
2022/12/09 06:05:37;;;;;;;;;;;18.80;55.00;;;;;;5032116;28;19909;-92
2022/12/09 06:08:03;;;;;;;;;;;18.80;54.80;;;;;;5030545;28;19914;-92
2022/12/09 06:10:29;;;;;;;;;;;18.90;54.60;;;;;;5018052;28;19917;-92
2022/12/09 06:12:55;;;;;;;;;;;18.90;54.40;;;;;;5033524;28;19917;-92
2022/12/09 06:15:20;;;;;;;;;;;18.90;54.30;;;;;;5018687;28;19920;-92
2022/12/09 06:17:46;;;;;;;;;;;18.90;54.70;;;;;;5033853;28;19917;-92
2022/12/09 06:20:12;;;;;;;;;;;18.80;54.40;;;;;;5014931;28;19909;-92
2022/12/09 06:22:38;;;;;;;;;;;18.70;54.50;;;;;;5032318;28;20346;-92
2022/12/09 06:25:03;;;;;;;;;;;18.60;54.70;;;;;;5031233;28;20500;-92
2022/12/09 06:27:34;;;;;;;;;;;18.50;54.90;;;;;;5031985;28;19909;-92
2022/12/09 06:30:01;;;;;;;;;;;18.30;55.10;;;;;;5014145;28;19910;-92
2022/12/09 06:32:27;;;;;;;;;;;18.20;55.40;;;;;;5029969;28;19912;-91
2022/12/09 06:34:53;;;;;;;;;;;18.00;55.60;;;;;;5029341;28;19932;-92
2022/12/09 06:37:18;;;;;;;;;;;17.90;56.00;;;;;;5028901;28;20019;-92
2022/12/09 06:39:45;;;;;;;;;;;17.70;56.20;;;;;;5028953;28;19920;-92
2022/12/09 06:42:10;;;;;;;;;;;17.60;56.60;;;;;;5011910;28;19935;-92
2022/12/09 06:44:38;;;;;;;;;;;17.40;56.90;;;;;;5026549;28;19910;-92
2022/12/09 06:47:03;;;;;;;;;;;17.30;57.20;;;;;;5029503;28;19936;-92
2022/12/09 06:49:29;;;;;;;;;;;17.20;57.70;;;;;;5029120;28;20166;-92
2022/12/09 06:51:55;;;;;;;;;;;17.10;58.00;;;;;;5030721;28;19967;-91
2022/12/09 06:54:20;;;;;;;;;;;16.90;58.40;;;;;;5031411;28;19909;-92
2022/12/09 06:56:46;;;;;;;;;;;16.80;58.80;;;;;;5029184;28;19917;-92
2022/12/09 06:59:11;;;;;;;;;;;16.70;59.10;;;;;;5030491;28;19918;-92
2022/12/09 07:01:37;;;;;;;;;;;16.60;59.50;;;;;;5029468;28;19963;-92
2022/12/09 07:04:03;;;;;;;;;;;16.50;59.80;;;;;;5029310;28;19935;-92
2022/12/09 07:06:28;;;;;;;;;;;16.40;60.30;;;;;;5015675;28;19952;-92
2022/12/09 07:08:55;;;;;;;;;;;16.30;60.80;;;;;;5014799;28;20271;-92
2022/12/09 07:11:20;;;;;;;;;;;16.20;61.30;;;;;;5013927;28;20179;-92
2022/12/09 07:13:47;;;;;;;;;;;16.10;61.70;;;;;;5030566;28;20276;-92
2022/12/09 07:16:13;;;;;;;;;;;16.10;62.10;;;;;;5013999;28;19909;-92
2022/12/09 07:18:38;;;;;;;;;;;16.00;62.30;;;;;;5030415;28;19909;-91
2022/12/09 07:21:08;;;;;;;;;;;16.00;62.40;;;;;;5026899;28;19983;-92
2022/12/09 07:23:33;;;;;;;;;;;16.10;62.40;;;;;;5012752;28;20004;-92
2022/12/09 07:26:01;;;;;;;;;;;16.10;62.20;;;;;;5026537;28;20012;-92
2022/12/09 07:28:26;;;;;;;;;;;16.20;62.00;;;;;;5027151;28;20200;-92
2022/12/09 07:30:52;;;;;;;;;;;16.30;61.50;;;;;;5010609;28;20450;-92
2022/12/09 07:33:17;;;;;;;;;;;16.40;60.90;;;;;;5026371;28;19913;-92
2022/12/09 07:35:43;;;;;;;;;;;16.50;60.50;;;;;;5027967;28;19909;-92
2022/12/09 07:38:08;;;;;;;;;;;16.60;59.90;;;;;;5027422;28;20024;-92
2022/12/09 07:40:34;;;;;;;;;;;16.80;59.60;;;;;;5025826;28;20151;-92
2022/12/09 07:43:00;;;;;;;;;;;16.90;59.20;;;;;;5026683;28;19913;-92
2022/12/09 07:45:25;;;;;;;;;;;17.00;58.80;;;;;;5029013;28;20191;-92
2022/12/09 07:47:51;;;;;;;;;;;17.10;58.50;;;;;;5029619;28;20169;-92
2022/12/09 07:50:16;;;;;;;;;;;17.20;58.30;;;;;;5028302;28;20203;-92
2022/12/09 07:52:42;;;;;;;;;;;17.20;58.10;;;;;;5029911;28;19924;-92
2022/12/09 07:55:08;;;;;;;;;;;17.30;57.90;;;;;;5029099;28;20199;-92
2022/12/09 07:57:34;;;;;;;;;;;17.30;57.80;;;;;;5012014;28;19921;-92
2022/12/09 07:59:59;;;;;;;;;;;17.40;57.60;;;;;;5028191;28;19909;-92
2022/12/09 08:02:25;;;;;;;;;;;17.40;57.50;;;;;;5028335;28;20064;-92
2022/12/09 08:04:51;;;;;;;;;;;17.40;57.50;;;;;;5028257;28;19909;-92
2022/12/09 08:07:16;;;;;;;;;;;17.30;57.60;;;;;;5030111;28;20251;-92
2022/12/09 08:09:42;;;;;;;;;;;17.30;57.70;;;;;;5030600;28;19928;-92
2022/12/09 08:12:09;;;;;;;;;;;17.20;57.80;;;;;;5031292;28;19913;-92
2022/12/09 08:14:35;;;;;;;;;;;17.20;57.90;;;;;;5014297;28;19909;-92
2022/12/09 08:17:01;;;;;;;;;;;17.10;58.00;;;;;;5029286;28;20154;-92
2022/12/09 08:19:27;;;;;;;;;;;17.00;58.10;;;;;;5028475;28;19910;-92
2022/12/09 08:21:52;;;;;;;;;;;17.00;58.30;;;;;;5027751;28;20052;-92
2022/12/09 08:24:18;;;;;;;;;;;16.90;58.40;;;;;;5031481;28;19909;-92
2022/12/09 08:26:44;;;;;;;;;;;16.90;58.60;;;;;;5030566;28;19913;-92
2022/12/09 08:29:10;;;;;;;;;;;16.80;58.70;;;;;;5029455;28;20158;-92
2022/12/09 08:31:36;;;;;;;;;;;16.70;58.80;;;;;;5011973;28;19919;-92
2022/12/09 08:34:03;;;;;;;;;;;16.70;59.00;;;;;;5028721;28;19913;-92
2022/12/09 08:36:28;;;;;;;;;;;16.70;59.10;;;;;;5010572;28;19909;-92
2022/12/09 08:38:56;;;;;;;;;;;16.60;59.20;;;;;;5028252;28;19909;-92
2022/12/09 08:41:33;;;;;;;;;;;16.60;59.30;;;;;;5012495;28;19909;-93
2022/12/09 08:44:07;;;;;;;;;;;16.50;59.10;;;;;;5016174;28;19936;-93
2022/12/09 08:46:36;;;;;;;;;;;16.40;59.20;;;;;;5016603;28;19909;-93
2022/12/09 08:49:02;;;;;;;;;;;16.40;59.60;;;;;;5016142;28;19920;-92
2022/12/09 08:51:28;;;;;;;;;;;16.30;59.40;;;;;;5014932;28;19909;-93
2022/12/09 08:53:56;;;;;;;;;;;16.40;59.80;;;;;;5015003;28;19975;-92
2022/12/09 08:56:21;;;;;;;;;;;16.30;59.70;;;;;;5014866;28;19917;-92
2022/12/09 08:58:47;;;;;;;;;;;16.30;59.70;;;;;;5032642;28;19909;-92
2022/12/09 09:01:14;;;;;;;;;;;16.30;59.50;;;;;;5017167;28;19920;-92
2022/12/09 09:03:39;;;;;;;;;;;16.30;59.50;;;;;;5017844;28;19909;-92
2022/12/09 09:06:06;;;;;;;;;;;16.60;59.60;;;;;;5028118;28;19909;-92
2022/12/09 09:08:32;;;;;;;;;;;17.10;58.60;;;;;;5028434;28;19909;-91
2022/12/09 09:10:58;;;;;;;;;;;17.40;57.50;;;;;;5012604;28;19987;-92
2022/12/09 09:13:24;;;;;;;;;;;17.40;57.20;;;;;;5029028;28;20258;-92
2022/12/09 09:15:49;;;;;;;;;;;17.70;57.30;;;;;;5011031;28;19917;-92
2022/12/09 09:18:15;;;;;;;;;;;18.20;55.90;;;;;;5028987;28;19952;-92
2022/12/09 09:20:46;;;;;;;;;;;18.50;54.90;;;;;;5030581;28;19999;-92
2022/12/09 09:23:13;;;;;;;;;;;18.50;54.50;;;;;;5011602;28;19996;-92
2022/12/09 09:25:42;;;;;;;;;;;18.50;54.40;;;;;;5012350;28;20068;-91
2022/12/09 09:28:08;;;;;;;;;;;18.40;54.20;;;;;;5010449;28;19949;-92
2022/12/09 09:30:33;;;;;;;;;;;18.50;54.20;;;;;;5012191;28;20027;-92
2022/12/09 09:32:59;;;;;;;;;;;18.50;54.10;;;;;;5028951;28;19920;-92
2022/12/09 09:35:24;;;;;;;;;;;18.60;54.10;;;;;;5026915;28;19910;-92
2022/12/09 09:37:50;;;;;;;;;;;18.60;53.80;;;;;;5028997;28;19909;-92
2022/12/09 09:40:16;;;;;;;;;;;18.70;53.70;;;;;;5010435;28;19920;-92
2022/12/09 09:42:47;;;;;;;;;;;18.70;53.60;;;;;;5011563;28;19909;-92
2022/12/09 09:45:14;;;;;;;;;;;18.70;53.60;;;;;;5015204;28;19913;-92
2022/12/09 09:48:01;;;;;;;;;;;18.60;53.60;;;;;;5015175;28;19909;-92
2022/12/09 09:50:34;;;;;;;;;;;18.50;53.70;;;;;;5016956;28;19920;-92
2022/12/09 09:53:01;;;;;;;;;;;18.40;53.80;;;;;;5018374;28;19949;-92
2022/12/09 09:55:40;;;;;;;;;;;18.30;54.00;;;;;;5017276;28;19960;-92
2022/12/09 09:58:14;;;;;;;;;;;18.20;54.10;;;;;;5014884;28;20242;-91
2022/12/09 10:00:42;;;;;;;;;;;18.10;54.30;;;;;;5013356;28;19936;-92
2022/12/09 10:03:18;;;;;;;;;;;18.00;54.50;;;;;;5012869;28;20400;-92
2022/12/09 10:05:44;;;;;;;;;;;18.00;54.60;;;;;;5014332;28;19924;-92
2022/12/09 10:08:24;;;;;;;;;;;17.90;54.80;;;;;;5031844;28;19913;-92
2022/12/09 10:11:05;;;;;;;;;;;17.80;55.00;;;;;;5014664;28;19925;-92
2022/12/09 10:13:36;;;;;;;;;;;17.70;55.20;;;;;;5012387;28;19913;-92
2022/12/09 10:16:11;;;;;;;;;;;17.60;55.40;;;;;;5012431;28;19909;-92
2022/12/09 10:18:41;;;;;;;;;;;17.50;55.60;;;;;;5013090;28;19920;-92
2022/12/09 10:21:14;;;;;;;;;;;17.40;55.80;;;;;;5013589;28;19920;-92
2022/12/09 10:23:40;;;;;;;;;;;17.30;56.00;;;;;;5012164;28;20287;-91
2022/12/09 10:26:10;;;;;;;;;;;17.20;56.20;;;;;;5030697;28;19919;-92
2022/12/09 10:28:38;;;;;;;;;;;17.20;56.30;;;;;;5012971;28;19909;-92
2022/12/09 10:31:04;;;;;;;;;;;17.20;56.50;;;;;;5011456;28;20012;-92
2022/12/09 10:33:34;;;;;;;;;;;17.20;56.50;;;;;;5009548;28;20162;-92
2022/12/09 10:35:59;;;;;;;;;;;17.20;56.50;;;;;;5011212;28;20179;-91
2022/12/09 10:38:26;;;;;;;;;;;17.20;56.50;;;;;;5026678;28;20366;-91
2022/12/09 10:40:53;;;;;;;;;;;17.10;56.50;;;;;;5012365;28;19909;-92
2022/12/09 10:43:35;;;;;;;;;;;17.10;56.60;;;;;;5011939;28;19909;-92
2022/12/09 10:46:08;;;;;;;;;;;17.10;56.80;;;;;;5013892;28;19996;-92
2022/12/09 10:48:43;;;;;;;;;;;17.00;56.90;;;;;;5012690;28;19920;-91
2022/12/09 10:51:16;;;;;;;;;;;16.90;57.10;;;;;;5013652;28;19967;-92
2022/12/09 10:53:46;;;;;;;;;;;16.90;57.20;;;;;;5010713;28;19925;-92
2022/12/09 10:56:16;;;;;;;;;;;16.80;57.40;;;;;;5010257;28;19909;-92
2022/12/09 10:58:41;;;;;;;;;;;16.80;57.50;;;;;;5011487;28;19924;-92
2022/12/09 11:01:11;;;;;;;;;;;16.70;57.60;;;;;;5030032;28;20161;-92
2022/12/09 11:03:46;;;;;;;;;;;16.80;57.60;;;;;;5013358;28;19924;-92
2022/12/09 11:06:26;;;;;;;;;;;16.90;57.50;;;;;;5013829;28;20264;-92
2022/12/09 11:09:01;;;;;;;;;;;17.10;57.10;;;;;;5013135;28;19909;-92
2022/12/09 11:11:43;;;;;;;;;;;17.30;56.70;;;;;;5012255;28;19996;-92
2022/12/09 11:14:21;;;;;;;;;;;17.50;56.20;;;;;;5009892;28;19917;-92
2022/12/09 11:16:54;;;;;;;;;;;17.70;55.70;;;;;;5012878;28;20131;-91
2022/12/09 11:19:28;;;;;;;;;;;17.90;55.30;;;;;;5012931;28;20077;-91
2022/12/09 11:22:12;;;;;;;;;;;18.10;54.90;;;;;;5010761;28;20165;-91
2022/12/09 11:24:39;;;;;;;;;;;18.20;54.60;;;;;;5011258;28;19909;-91
2022/12/09 11:27:37;;;;;;;;;;;18.40;54.30;;;;;;5027083;28;20169;-91
2022/12/09 11:30:04;;;;;;;;;;;18.50;54.20;;;;;;4967045;28;20164;-91
2022/12/09 11:32:30;;;;;;;;;;;18.60;53.90;;;;;;5010643;28;19920;-92
2022/12/09 11:34:55;;;;;;;;;;;18.60;53.70;;;;;;5011978;28;20177;-91
2022/12/09 11:37:21;;;;;;;;;;;18.70;53.70;;;;;;5027391;28;19948;-92
2022/12/09 11:39:49;;;;;;;;;;;18.60;53.70;;;;;;5007950;28;19959;-91
2022/12/09 11:42:17;;;;;;;;;;;18.60;53.80;;;;;;5010428;28;20472;-91
2022/12/09 11:44:56;;;;;;;;;;;18.50;53.80;;;;;;5009985;28;19955;-91
2022/12/09 11:47:25;;;;;;;;;;;18.40;53.90;;;;;;5009623;28;19964;-91
2022/12/09 11:49:53;;;;;;;;;;;18.40;54.10;;;;;;5010649;28;19909;-91
2022/12/09 11:52:18;;;;;;;;;;;18.20;54.20;;;;;;5009836;28;19913;-91
2022/12/09 11:55:03;;;;;;;;;;;18.10;54.30;;;;;;5011324;28;20063;-91
2022/12/09 11:57:46;;;;;;;;;;;18.10;54.60;;;;;;5011999;28;19910;-91
2022/12/09 12:00:15;;;;;;;;;;;17.90;54.80;;;;;;5008861;28;19968;-91
2022/12/09 12:03:10;;;;;;;;;;;17.80;54.90;;;;;;5006686;28;20472;-91
2022/12/09 12:05:43;;;;;;;;;;;17.70;55.10;;;;;;4989375;28;19916;-91
2022/12/09 12:08:18;;;;;;;;;;;17.70;55.30;;;;;;5007439;28;19909;-91
2022/12/09 12:10:50;;;;;;;;;;;17.60;55.30;;;;;;5005936;28;19917;-91
2022/12/09 12:13:19;;;;;;;;;;;17.60;55.40;;;;;;5004152;28;19959;-91
2022/12/09 12:15:48;;;;;;;;;;;17.50;55.50;;;;;;5005630;28;19913;-91
2022/12/09 12:18:19;;;;;;;;;;;17.50;55.70;;;;;;5007348;28;19953;-91
2022/12/09 12:20:57;;;;;;;;;;;17.40;55.80;;;;;;5008075;28;20208;-91
2022/12/09 12:23:32;;;;;;;;;;;17.40;55.90;;;;;;5006003;28;20018;-91
2022/12/09 12:25:57;;;;;;;;;;;17.30;56.00;;;;;;5004926;28;20241;-91
2022/12/09 12:28:26;;;;;;;;;;;17.30;56.10;;;;;;5007698;28;19934;-91
2022/12/09 12:31:06;;;;;;;;;;;17.20;56.20;;;;;;5007420;28;19909;-91
2022/12/09 12:33:32;;;;;;;;;;;17.20;56.20;;;;;;5008703;28;20283;-91
2022/12/09 12:36:01;;;;;;;;;;;17.20;56.20;;;;;;5005808;28;20390;-91
2022/12/09 12:38:45;;;;;;;;;;;17.30;56.30;;;;;;5022898;28;19913;-91
2022/12/09 12:41:17;;;;;;;;;;;17.30;56.30;;;;;;5005812;28;20398;-91
2022/12/09 12:46:26;;;;;;;;;;;17.20;56.20;;;;;;5021567;28;20204;-91
2022/12/09 12:48:52;;;;;;;;;;;17.20;56.20;;;;;;5006430;28;20409;-91
2022/12/09 12:51:23;;;;;;;;;;;17.30;56.20;;;;;;5006598;28;19909;-91
2022/12/09 12:53:54;;;;;;;;;;;17.30;56.20;;;;;;5005643;28;20242;-90
2022/12/09 12:56:20;;;;;;;;;;;17.30;56.20;;;;;;5006124;28;20004;-91
2022/12/09 12:58:54;;;;;;;;;;;17.30;56.10;;;;;;5009182;28;19921;-90
2022/12/09 13:01:28;;;;;;;;;;;17.30;56.00;;;;;;5007660;28;19941;-90
2022/12/09 13:03:54;;;;;;;;;;;17.40;56.00;;;;;;5007795;28;20069;-90
2022/12/09 13:06:21;;;;;;;;;;;17.40;56.00;;;;;;5007552;28;19980;-91
2022/12/09 13:08:47;;;;;;;;;;;17.40;55.90;;;;;;5009048;28;19951;-91
2022/12/09 13:11:16;;;;;;;;;;;17.40;55.90;;;;;;5007868;28;19921;-91
2022/12/09 13:13:44;;;;;;;;;;;17.40;55.80;;;;;;5005791;28;20076;-90
2022/12/09 13:16:16;;;;;;;;;;;17.40;55.80;;;;;;5003304;28;20158;-90
2022/12/09 13:18:42;;;;;;;;;;;17.40;55.80;;;;;;5004422;28;19913;-91
2022/12/09 13:21:08;;;;;;;;;;;17.50;55.90;;;;;;5004771;28;19909;-90
2022/12/09 13:23:53;;;;;;;;;;;17.50;55.90;;;;;;5004180;28;19909;-90
2022/12/09 13:26:24;;;;;;;;;;;17.60;55.90;;;;;;5004341;28;19909;-90
2022/12/09 13:29:03;;;;;;;;;;;17.60;55.80;;;;;;5007206;28;19905;-90
2022/12/09 13:31:31;;;;;;;;;;;17.50;55.70;;;;;;5009767;28;19909;-90
2022/12/09 13:34:15;;;;;;;;;;;17.50;55.60;;;;;;5009372;28;19913;-90
2022/12/09 13:36:44;;;;;;;;;;;17.50;55.70;;;;;;5007831;28;19921;-90
2022/12/09 13:39:11;;;;;;;;;;;17.60;55.60;;;;;;5006963;28;20347;-90
2022/12/09 13:44:23;;;;;;;;;;;17.50;55.50;;;;;;5026692;28;20077;-90
2022/12/09 13:46:49;;;;;;;;;;;17.60;55.50;;;;;;5009557;28;19917;-90
2022/12/09 13:49:14;;;;;;;;;;;17.60;55.50;;;;;;5024142;28;20176;-90
2022/12/09 13:51:44;;;;;;;;;;;17.60;55.50;;;;;;5007043;28;19909;-90
2022/12/09 13:54:13;;;;;;;;;;;17.50;55.50;;;;;;5007465;28;20011;-90
2022/12/09 13:56:41;;;;;;;;;;;17.60;55.70;;;;;;5008030;28;20110;-90
2022/12/09 13:59:25;;;;;;;;;;;17.50;55.80;;;;;;5008251;28;19970;-90
2022/12/09 14:02:00;;;;;;;;;;;17.50;55.90;;;;;;5006088;28;19939;-90
2022/12/09 14:04:33;;;;;;;;;;;17.40;55.90;;;;;;5008810;28;19944;-90
2022/12/09 14:07:08;;;;;;;;;;;17.40;56.00;;;;;;5010676;28;20246;-90
2022/12/09 14:09:45;;;;;;;;;;;17.40;56.10;;;;;;5008428;28;19921;-90
2022/12/09 14:12:36;;;;;;;;;;;17.40;56.10;;;;;;5008496;28;20038;-90
2022/12/09 14:15:20;;;;;;;;;;;17.40;56.10;;;;;;4989107;28;20415;-90
2022/12/09 14:17:46;;;;;;;;;;;17.30;56.10;;;;;;5006442;28;19909;-90
2022/12/09 14:20:20;;;;;;;;;;;17.30;56.10;;;;;;5007279;28;19916;-90
2022/12/09 14:23:04;;;;;;;;;;;17.30;56.50;;;;;;5005973;28;20207;-90
2022/12/09 14:25:32;;;;;;;;;;;17.30;56.20;;;;;;5006621;28;19909;-90
2022/12/09 14:28:19;;;;;;;;;;;17.20;56.20;;;;;;5024435;28;20345;-90
2022/12/09 14:30:44;;;;;;;;;;;17.20;56.10;;;;;;5010062;28;20312;-90